Aviano, Aviano Air Base (LIPA)

NameAviano Air Base
CityAviano
CountryItaly
ICAOLIPA
IATAAVB
Altitude125 m
CoordinatesGoogle Map
Live Air TrafficLiveATC.net
METARLIPA 152055Z 02006KT CAVOK M03/M04 Q1020 RMK SKC VIS MIN 9999 WIND THR05 05006KT WIND THR23 01005KT A3013 BLU
2018-12-15 20:55:00 Wind: North (20°) 3.09 m/s - Visibility: > 10000 m - Weather: CAVOK - Temperature: -3 °C - Dew point: -4 °C - Humidity: 92.9% - Pressure: 1020 hPa

Sorry, no flights used the airport in this database.